createdAt,value
2018-04-17T00:00:14.499Z,17.03
2018-04-17T00:02:42.120Z,15.30
2018-04-17T00:05:10.473Z,26.70
2018-04-17T00:07:38.055Z,16.17
2018-04-17T00:10:06.413Z,11.30
2018-04-17T00:12:34.000Z,8.93
2018-04-17T00:15:01.592Z,10.33
2018-04-17T00:17:29.172Z,7.63
2018-04-17T00:19:56.799Z,8.37
2018-04-17T00:22:24.366Z,5.50
2018-04-17T00:24:51.943Z,7.50
2018-04-17T00:27:20.292Z,5.33
2018-04-17T00:29:47.869Z,6.73
2018-04-17T00:32:15.451Z,4.50
2018-04-17T00:34:43.027Z,6.40
2018-04-17T00:37:10.632Z,5.43
2018-04-17T00:39:38.216Z,5.40
2018-04-17T00:42:05.820Z,7.97
2018-04-17T00:44:34.173Z,5.97
2018-04-17T00:47:01.760Z,7.37
2018-04-17T00:49:30.104Z,7.00
2018-04-17T00:51:57.688Z,10.27
2018-04-17T00:54:25.343Z,5.67
2018-04-17T00:56:52.969Z,6.73
2018-04-17T00:59:20.526Z,4.60
2018-04-17T01:01:48.164Z,6.00
2018-04-17T01:04:15.749Z,6.40
2018-04-17T01:06:43.340Z,10.57
2018-04-17T01:09:10.924Z,5.83
2018-04-17T01:11:39.275Z,6.57
2018-04-17T01:14:06.857Z,7.10
2018-04-17T01:16:35.204Z,6.40
2018-04-17T01:19:02.834Z,5.57
2018-04-17T01:21:30.429Z,8.57
2018-04-17T01:23:58.008Z,6.07
2018-04-17T01:26:25.585Z,6.57
2018-04-17T01:28:53.936Z,5.43
2018-04-17T01:31:21.522Z,6.37
2018-04-17T01:33:49.869Z,7.53
2018-04-17T01:36:17.456Z,6.30
2018-04-17T01:38:45.804Z,8.90
2018-04-17T01:41:13.392Z,6.87
2018-04-17T01:43:41.751Z,8.37
2018-04-17T01:46:09.343Z,6.00
2018-04-17T01:48:36.924Z,9.27
2018-04-17T01:51:04.505Z,8.83
2018-04-17T01:53:32.100Z,5.07
2018-04-17T01:55:59.676Z,5.90
2018-04-17T01:58:28.022Z,7.07
2018-04-17T02:00:55.618Z,8.27
2018-04-17T02:03:23.249Z,7.10
2018-04-17T02:05:50.833Z,7.13
2018-04-17T02:08:19.192Z,7.23
2018-04-17T02:10:46.820Z,4.90
2018-04-17T02:13:14.436Z,7.87
2018-04-17T02:15:42.780Z,5.63
2018-04-17T02:18:10.364Z,6.10
2018-04-17T02:20:38.031Z,6.57
2018-04-17T02:23:06.384Z,6.20
2018-04-17T02:25:33.963Z,5.20
2018-04-17T02:28:02.317Z,7.73
2018-04-17T02:30:29.909Z,7.93
2018-04-17T02:32:58.264Z,8.57
2018-04-17T02:35:25.844Z,6.97
2018-04-17T02:37:54.192Z,7.83
2018-04-17T02:40:21.784Z,9.13
2018-04-17T02:42:50.133Z,10.90
2018-04-17T02:45:17.717Z,8.23
2018-04-17T02:47:46.072Z,5.80
2018-04-17T02:50:13.656Z,11.17
2018-04-17T02:52:42.004Z,8.43
2018-04-17T02:55:09.584Z,7.73
2018-04-17T02:57:37.169Z,7.70
2018-04-17T03:00:04.766Z,8.17
2018-04-17T03:02:32.354Z,7.73
2018-04-17T03:04:59.944Z,6.37
2018-04-17T03:07:28.289Z,8.40
2018-04-17T03:09:56.724Z,7.23
2018-04-17T03:12:24.312Z,6.80
2018-04-17T03:14:51.892Z,6.40
2018-04-17T03:17:19.473Z,8.10
2018-04-17T03:19:47.825Z,7.80
2018-04-17T03:22:15.412Z,7.87
2018-04-17T03:24:42.997Z,7.90
2018-04-17T03:27:10.578Z,9.20
2018-04-17T03:29:38.204Z,5.50
2018-04-17T03:32:05.799Z,7.40
2018-04-17T03:34:33.416Z,7.67
2018-04-17T03:37:01.760Z,9.63
2018-04-17T03:39:29.344Z,6.80
2018-04-17T03:41:57.687Z,7.33
2018-04-17T03:44:25.263Z,6.60
2018-04-17T03:46:52.853Z,8.57
2018-04-17T03:49:21.252Z,11.57
2018-04-17T03:51:48.844Z,9.17
2018-04-17T03:54:16.432Z,6.97
2018-04-17T03:56:44.024Z,8.70
2018-04-17T03:59:11.623Z,7.87
2018-04-17T04:01:39.209Z,7.83
2018-04-17T04:04:06.800Z,7.47
2018-04-17T04:06:35.148Z,7.77
2018-04-17T04:09:03.400Z,10.73
2018-04-17T04:11:31.532Z,7.13
2018-04-17T04:13:59.119Z,8.73
2018-04-17T04:16:38.540Z,8.50
2018-04-17T04:19:17.877Z,11.03
2018-04-17T04:21:57.356Z,8.60
2018-04-17T04:24:36.759Z,7.67
2018-04-17T04:27:04.356Z,8.03
2018-04-17T04:29:31.960Z,8.60
2018-04-17T04:31:59.573Z,9.67
2018-04-17T04:34:27.190Z,21.20
2018-04-17T04:36:54.792Z,10.97
2018-04-17T04:39:22.384Z,8.80
2018-04-17T04:41:50.736Z,8.90
2018-04-17T04:44:18.340Z,6.73
2018-04-17T04:46:45.926Z,8.03
2018-04-17T04:49:13.511Z,10.00
2018-04-17T04:51:41.866Z,7.10
2018-04-17T04:54:09.456Z,9.50
2018-04-17T04:56:37.043Z,5.77
2018-04-17T04:59:05.388Z,8.30
2018-04-17T05:01:32.968Z,6.10
2018-04-17T05:04:00.565Z,6.43
2018-04-17T05:06:28.149Z,8.10
2018-04-17T05:08:55.728Z,8.63
2018-04-17T05:11:23.313Z,9.53
2018-04-17T05:13:50.927Z,8.97
2018-04-17T05:16:18.556Z,8.03
2018-04-17T05:18:46.136Z,7.37
2018-04-17T05:21:13.712Z,7.03
2018-04-17T05:23:41.304Z,9.63
2018-04-17T05:26:08.890Z,8.47
2018-04-17T05:28:37.244Z,7.03
2018-04-17T05:31:04.824Z,9.57
2018-04-17T05:33:33.171Z,8.03
2018-04-17T05:36:00.774Z,12.30
2018-04-17T05:38:28.443Z,7.27
2018-04-17T05:40:56.041Z,9.57
2018-04-17T05:43:23.652Z,8.20
2018-04-17T05:45:51.285Z,7.43
2018-04-17T05:48:18.896Z,7.07
2018-04-17T05:50:46.505Z,5.20
2018-04-17T05:53:14.189Z,6.20
2018-04-17T05:55:42.710Z,8.87
2018-04-17T05:58:10.346Z,12.90
2018-04-17T06:00:37.970Z,11.97
2018-04-17T06:03:05.564Z,7.43
2018-04-17T06:05:33.205Z,8.03
2018-04-17T06:08:01.579Z,7.30
2018-04-17T06:10:29.953Z,9.23
2018-04-17T06:12:57.557Z,10.67
2018-04-17T06:15:25.165Z,8.57
2018-04-17T06:17:52.772Z,8.67
2018-04-17T06:20:20.387Z,12.67
2018-04-17T06:22:47.988Z,10.23
2018-04-17T06:25:15.585Z,6.30
2018-04-17T06:27:43.181Z,7.30
2018-04-17T06:30:11.554Z,6.80
2018-04-17T06:32:39.157Z,6.37
2018-04-17T06:35:06.770Z,7.43
2018-04-17T06:37:35.162Z,7.97
2018-04-17T06:40:03.622Z,7.27
2018-04-17T06:42:31.225Z,8.07
2018-04-17T06:44:59.059Z,6.73
2018-04-17T06:47:26.766Z,7.47
2018-04-17T06:49:55.113Z,8.40
2018-04-17T06:52:23.486Z,6.37
2018-04-17T06:54:51.857Z,7.53
2018-04-17T06:57:19.453Z,7.50
2018-04-17T06:59:47.072Z,5.07
2018-04-17T07:02:14.745Z,5.33
2018-04-17T07:04:42.346Z,7.57
2018-04-17T07:07:09.961Z,8.70
2018-04-17T07:09:37.578Z,8.20
2018-04-17T07:12:05.178Z,5.13
2018-04-17T07:14:32.789Z,8.73
2018-04-17T07:17:00.419Z,9.10
2018-04-17T07:19:28.791Z,8.47
2018-04-17T07:21:57.227Z,7.40
2018-04-17T07:24:24.826Z,5.20
2018-04-17T07:26:53.198Z,8.60
2018-04-17T07:29:20.857Z,7.83
2018-04-17T07:31:48.465Z,6.63
2018-04-17T07:34:16.070Z,6.60
2018-04-17T07:36:43.677Z,5.23
2018-04-17T07:39:11.279Z,8.40
2018-04-17T07:41:38.899Z,6.23
2018-04-17T07:44:06.510Z,7.77
2018-04-17T07:46:34.136Z,9.13
2018-04-17T07:49:06.578Z,7.20
2018-04-17T07:51:34.952Z,6.17
2018-04-17T07:54:03.343Z,6.80
2018-04-17T07:56:31.717Z,13.80
2018-04-17T07:58:59.333Z,6.03
2018-04-17T08:01:26.937Z,9.67
2018-04-17T08:03:55.307Z,6.13
2018-04-17T08:06:23.678Z,5.57
2018-04-17T08:08:52.053Z,9.07
2018-04-17T08:11:19.667Z,7.27
2018-04-17T08:13:47.269Z,6.23
2018-04-17T08:16:14.894Z,6.60
2018-04-17T08:18:42.497Z,7.77
2018-04-17T08:21:10.114Z,6.30
2018-04-17T08:23:37.718Z,6.00
2018-04-17T08:26:05.309Z,7.53
2018-04-17T08:28:32.904Z,7.47
2018-04-17T08:31:00.492Z,6.47
2018-04-17T08:33:28.092Z,8.00
2018-04-17T08:35:55.734Z,6.87
2018-04-17T08:38:24.098Z,7.53
2018-04-17T08:40:51.684Z,15.37
2018-04-17T08:43:20.030Z,8.03
2018-04-17T08:45:47.651Z,8.67
2018-04-17T08:48:15.256Z,8.83
2018-04-17T08:50:42.841Z,16.30
2018-04-17T08:53:11.189Z,4.63
2018-04-17T08:55:38.777Z,13.10
2018-04-17T08:58:07.136Z,4.30
2018-04-17T09:00:34.725Z,6.00
2018-04-17T09:03:02.322Z,3.40
2018-04-17T09:05:29.908Z,4.80
2018-04-17T09:07:57.489Z,6.63
2018-04-17T09:10:25.837Z,4.40
2018-04-17T09:12:53.502Z,5.07
2018-04-17T09:15:21.095Z,4.67
2018-04-17T09:17:49.468Z,7.73
2018-04-17T09:20:17.817Z,5.03
2018-04-17T09:22:45.409Z,3.03
2018-04-17T09:25:13.757Z,6.83
2018-04-17T09:27:41.351Z,3.93
2018-04-17T09:30:09.717Z,2.90
2018-04-17T09:32:38.068Z,4.27
2018-04-17T09:35:05.665Z,4.57
2018-04-17T09:37:34.056Z,5.80
2018-04-17T09:40:01.643Z,4.87
2018-04-17T09:42:29.232Z,4.20
2018-04-17T09:44:57.605Z,3.30
2018-04-17T09:47:25.189Z,2.67
2018-04-17T09:49:53.583Z,4.87
2018-04-17T09:52:21.920Z,2.57
2018-04-17T09:54:49.512Z,3.07
2018-04-17T09:57:17.862Z,2.87
2018-04-17T09:59:45.489Z,4.97
2018-04-17T10:02:13.080Z,2.80
2018-04-17T10:04:40.692Z,3.03
2018-04-17T10:07:08.277Z,3.50
2018-04-17T10:09:35.861Z,3.73
2018-04-17T10:12:03.444Z,5.07
2018-04-17T10:14:31.058Z,2.20
2018-04-17T10:16:58.641Z,5.27
2018-04-17T10:19:26.264Z,6.07
2018-04-17T10:21:53.943Z,2.13
2018-04-17T10:24:21.534Z,4.77
2018-04-17T10:26:49.120Z,3.77
2018-04-17T10:29:17.476Z,4.47
2018-04-17T10:31:45.101Z,4.40
2018-04-17T10:34:12.689Z,4.40
2018-04-17T10:36:40.281Z,4.70
2018-04-17T10:39:08.673Z,4.87
2018-04-17T10:41:36.289Z,5.53
2018-04-17T10:44:03.884Z,4.80
2018-04-17T10:46:32.280Z,3.57
2018-04-17T10:48:59.865Z,5.20
2018-04-17T10:51:27.449Z,3.63
2018-04-17T10:53:55.054Z,5.43
2018-04-17T10:56:22.688Z,6.93
2018-04-17T10:58:51.040Z,3.63
2018-04-17T11:01:18.669Z,2.20
2018-04-17T11:03:46.265Z,3.93
2018-04-17T11:06:13.906Z,3.23
2018-04-17T11:08:42.082Z,4.90
2018-04-17T11:11:09.722Z,4.80
2018-04-17T11:13:38.382Z,4.80
2018-04-17T11:16:06.781Z,3.73
2018-04-17T11:18:34.377Z,3.53
2018-04-17T11:21:01.961Z,3.90
2018-04-17T11:23:29.552Z,2.63
2018-04-17T11:25:57.247Z,4.47
2018-04-17T11:28:24.842Z,5.80
2018-04-17T11:30:52.475Z,4.70
2018-04-17T11:33:20.057Z,4.67
2018-04-17T11:35:48.449Z,3.40
2018-04-17T11:38:16.044Z,3.13
2018-04-17T11:40:43.729Z,4.00
2018-04-17T11:43:11.352Z,3.57
2018-04-17T11:45:39.742Z,6.50
2018-04-17T11:48:07.351Z,2.80
2018-04-17T11:50:36.451Z,3.67
2018-04-17T11:53:04.033Z,3.03
2018-04-17T11:55:32.397Z,2.77
2018-04-17T11:57:59.984Z,3.17
2018-04-17T12:00:28.337Z,3.40
2018-04-17T12:02:55.948Z,1.57
2018-04-17T12:05:23.576Z,2.77
2018-04-17T12:07:51.979Z,2.70
2018-04-17T12:10:19.619Z,3.07
2018-04-17T12:12:48.078Z,3.13
2018-04-17T12:15:16.444Z,2.40
2018-04-17T12:17:44.054Z,2.03
2018-04-17T12:20:11.674Z,2.17
2018-04-17T12:22:39.393Z,3.07
2018-04-17T12:25:07.021Z,3.37
2018-04-17T12:27:35.389Z,3.37
2018-04-17T12:30:03.776Z,3.40
2018-04-17T12:32:32.155Z,2.60
2018-04-17T12:35:00.560Z,3.90
2018-04-17T12:37:28.225Z,6.27
2018-04-17T12:39:55.838Z,3.30
2018-04-17T12:42:23.439Z,2.83
2018-04-17T12:44:51.051Z,2.73
2018-04-17T12:47:18.659Z,2.70
2018-04-17T12:49:46.262Z,4.03
2018-04-17T12:52:13.865Z,3.67
2018-04-17T12:54:41.469Z,2.83
2018-04-17T12:57:09.075Z,2.37
2018-04-17T12:59:37.494Z,3.37
2018-04-17T13:02:05.103Z,1.97
2018-04-17T13:04:32.713Z,2.50
2018-04-17T13:07:00.869Z,4.07
2018-04-17T13:09:28.527Z,2.57
2018-04-17T13:11:56.203Z,4.03
2018-04-17T13:14:23.819Z,4.83
2018-04-17T13:16:51.981Z,5.20
2018-04-17T13:19:19.590Z,3.23
2018-04-17T13:21:47.271Z,3.40
2018-04-17T13:24:15.013Z,3.20
2018-04-17T13:26:42.736Z,6.47
2018-04-17T13:29:10.351Z,4.73
2018-04-17T13:31:37.960Z,8.07
2018-04-17T13:34:05.562Z,4.00
2018-04-17T13:36:33.225Z,1.67
2018-04-17T13:39:00.825Z,4.53
2018-04-17T13:41:28.422Z,3.03
2018-04-17T13:43:56.785Z,6.20
2018-04-17T13:46:25.175Z,3.87
2018-04-17T13:48:53.581Z,4.67
2018-04-17T13:51:21.247Z,4.30
2018-04-17T13:53:48.860Z,2.57
2018-04-17T13:56:16.521Z,4.07
2018-04-17T13:58:44.137Z,5.10
2018-04-17T14:01:11.754Z,2.50
2018-04-17T14:03:40.187Z,4.57
2018-04-17T14:06:07.814Z,5.07
2018-04-17T14:08:36.191Z,1.87
2018-04-17T14:11:04.558Z,4.80
2018-04-17T14:13:32.965Z,4.07
2018-04-17T14:16:00.573Z,6.43
2018-04-17T14:18:28.193Z,1.93
2018-04-17T14:20:55.798Z,3.57
2018-04-17T14:23:23.518Z,2.30
2018-04-17T14:25:51.150Z,4.07
2018-04-17T14:28:19.526Z,3.10
2018-04-17T14:30:47.894Z,2.37
2018-04-17T14:33:16.281Z,6.53
2018-04-17T14:35:44.789Z,3.00
2018-04-17T14:38:12.465Z,1.77
2018-04-17T14:40:40.078Z,2.43
2018-04-17T14:43:07.743Z,3.33
2018-04-17T14:45:35.345Z,4.93
2018-04-17T14:48:02.989Z,3.73
2018-04-17T14:50:30.638Z,4.20
2018-04-17T14:52:59.508Z,2.47
2018-04-17T14:55:27.146Z,6.07
2018-04-17T14:57:54.750Z,2.00
2018-04-17T15:00:23.113Z,2.00
2018-04-17T15:02:51.494Z,2.90
2018-04-17T15:05:19.892Z,4.50
2018-04-17T15:07:47.499Z,3.40
2018-04-17T15:10:15.102Z,4.17
2018-04-17T15:12:43.469Z,3.63
2018-04-17T15:15:11.844Z,3.80
2018-04-17T15:17:39.494Z,2.43
2018-04-17T15:20:07.102Z,3.57
2018-04-17T15:22:34.723Z,0.80
2018-04-17T15:25:02.326Z,2.63
2018-04-17T15:27:29.951Z,3.40
2018-04-17T15:29:57.557Z,1.50
2018-04-17T15:32:25.161Z,2.60
2018-04-17T15:34:52.806Z,1.57
2018-04-17T15:37:20.405Z,2.63
2018-04-17T15:39:48.773Z,3.13
2018-04-17T15:42:17.154Z,3.37
2018-04-17T15:44:45.540Z,5.53
2018-04-17T15:47:13.921Z,6.90
2018-04-17T15:49:42.294Z,3.97
2018-04-17T15:52:10.658Z,3.33
2018-04-17T15:54:38.272Z,2.47
2018-04-17T15:57:05.881Z,4.10
2018-04-17T15:59:33.523Z,5.00
2018-04-17T16:02:01.172Z,1.80
2018-04-17T16:04:28.769Z,3.00
2018-04-17T16:06:56.813Z,2.37
2018-04-17T16:09:24.435Z,4.93
2018-04-17T16:11:52.049Z,3.43
2018-04-17T16:14:19.769Z,2.10
2018-04-17T16:16:47.499Z,2.97
2018-04-17T16:19:16.033Z,4.03
2018-04-17T16:21:43.635Z,2.80
2018-04-17T16:24:12.062Z,1.60
2018-04-17T16:26:39.867Z,1.50
2018-04-17T16:29:07.884Z,4.87
2018-04-17T16:31:36.485Z,3.43
2018-04-17T16:34:04.091Z,5.23
2018-04-17T16:36:31.698Z,4.93
2018-04-17T16:38:59.433Z,5.27
2018-04-17T16:41:27.869Z,7.77
2018-04-17T16:43:55.529Z,13.23
2018-04-17T16:46:23.143Z,6.53
2018-04-17T16:48:50.750Z,3.47
2018-04-17T16:51:18.436Z,3.63
2018-04-17T16:53:46.007Z,9.10
2018-04-17T16:56:14.849Z,9.33
2018-04-17T16:58:42.596Z,8.87
2018-04-17T17:01:10.281Z,8.40
2018-04-17T17:03:37.923Z,12.00
2018-04-17T17:06:06.005Z,5.03
2018-04-17T17:08:34.006Z,3.70
2018-04-17T17:11:02.633Z,4.57
2018-04-17T17:13:30.257Z,3.17
2018-04-17T17:15:57.931Z,7.83
2018-04-17T17:18:26.321Z,3.33
2018-04-17T17:20:54.703Z,4.50
2018-04-17T17:23:23.076Z,8.80
2018-04-17T17:25:51.634Z,7.87
2018-04-17T17:28:19.293Z,18.60
2018-04-17T17:30:46.941Z,13.60
2018-04-17T17:33:14.600Z,13.63
2018-04-17T17:35:42.622Z,10.23
2018-04-17T17:38:10.339Z,7.53
2018-04-17T17:40:37.983Z,11.73
2018-04-17T17:43:05.922Z,8.17
2018-04-17T17:45:33.553Z,11.03
2018-04-17T17:48:01.993Z,12.93
2018-04-17T17:50:29.898Z,12.97
2018-04-17T17:52:57.929Z,10.33
2018-04-17T17:55:25.616Z,5.93
2018-04-17T17:57:53.241Z,11.83
2018-04-17T18:00:21.248Z,9.33
2018-04-17T18:02:49.152Z,6.73
2018-04-17T18:05:17.527Z,9.27
2018-04-17T18:07:45.917Z,5.60
2018-04-17T18:10:13.873Z,7.10
2018-04-17T18:12:42.325Z,10.50
2018-04-17T18:15:09.998Z,9.27
2018-04-17T18:17:38.174Z,19.10
2018-04-17T18:20:06.651Z,13.83
2018-04-17T18:22:34.269Z,10.53
2018-04-17T18:25:01.910Z,4.93
2018-04-17T18:27:31.092Z,5.53
2018-04-17T18:29:58.772Z,7.27
2018-04-17T18:32:26.819Z,7.63
2018-04-17T18:34:54.552Z,7.77
2018-04-17T18:37:22.300Z,9.67
2018-04-17T18:39:49.971Z,3.00
2018-04-17T18:42:17.835Z,4.87
2018-04-17T18:44:45.755Z,7.63
2018-04-17T18:47:13.441Z,6.67
2018-04-17T18:49:41.060Z,10.70
2018-04-17T18:52:09.463Z,7.23
2018-04-17T18:54:37.398Z,7.97
2018-04-17T18:57:05.160Z,7.57
2018-04-17T18:59:32.879Z,7.63
2018-04-17T19:02:00.499Z,10.03
2018-04-17T19:04:28.871Z,8.27
2018-04-17T19:06:57.730Z,8.47
2018-04-17T19:09:25.375Z,7.17
2018-04-17T19:11:53.251Z,7.20
2018-04-17T19:14:20.924Z,8.50
2018-04-17T19:16:48.620Z,8.73
2018-04-17T19:19:17.055Z,5.83
2018-04-17T19:21:44.826Z,7.87
2018-04-17T19:24:12.779Z,10.73
2018-04-17T19:26:40.415Z,6.57
2018-04-17T19:29:08.047Z,8.27
2018-04-17T19:31:36.791Z,6.73
2018-04-17T19:34:04.965Z,5.40
2018-04-17T19:36:33.008Z,11.67
2018-04-17T19:39:01.887Z,8.67
2018-04-17T19:41:29.654Z,11.37
2018-04-17T19:43:57.705Z,8.60
2018-04-17T19:46:26.516Z,8.63
2018-04-17T19:48:54.183Z,8.30
2018-04-17T19:51:21.945Z,7.47
2018-04-17T19:53:49.763Z,13.23
2018-04-17T19:56:17.373Z,9.07
2018-04-17T19:58:44.981Z,9.90
2018-04-17T20:01:12.654Z,6.40
2018-04-17T20:03:40.735Z,7.37
2018-04-17T20:06:09.550Z,11.53
2018-04-17T20:08:37.219Z,9.23
2018-04-17T20:11:04.869Z,8.17
2018-04-17T20:13:32.520Z,6.13
2018-04-17T20:16:00.792Z,9.33
2018-04-17T20:18:29.342Z,9.27
2018-04-17T20:20:56.966Z,9.93
2018-04-17T20:23:24.649Z,5.00
2018-04-17T20:25:52.461Z,8.53
2018-04-17T20:28:20.433Z,8.60
2018-04-17T20:30:48.174Z,6.10
2018-04-17T20:33:15.773Z,7.67
2018-04-17T20:35:43.409Z,6.53
2018-04-17T20:38:11.295Z,9.67
2018-04-17T20:40:40.557Z,7.63
2018-04-17T20:43:09.568Z,13.00
2018-04-17T20:45:39.836Z,4.90
2018-04-17T20:48:07.512Z,8.60
2018-04-17T20:50:35.630Z,6.47
2018-04-17T20:53:04.563Z,6.87
2018-04-17T20:55:32.270Z,8.40
2018-04-17T20:57:59.985Z,8.33
2018-04-17T21:00:27.644Z,7.27
2018-04-17T21:02:55.510Z,5.93
2018-04-17T21:05:23.198Z,7.17
2018-04-17T21:07:50.885Z,8.70
2018-04-17T21:10:18.532Z,9.73
2018-04-17T21:12:46.280Z,7.23
2018-04-17T21:15:14.129Z,6.53
2018-04-17T21:17:41.817Z,8.33
2018-04-17T21:20:09.469Z,8.47
2018-04-17T21:22:37.137Z,9.87
2018-04-17T21:25:05.190Z,8.17
2018-04-17T21:27:32.829Z,9.23
2018-04-17T21:30:02.411Z,7.40
2018-04-17T21:32:30.429Z,8.73
2018-04-17T21:34:58.033Z,6.33
2018-04-17T21:37:25.649Z,8.97
2018-04-17T21:39:53.280Z,8.37
2018-04-17T21:42:21.628Z,7.80
2018-04-17T21:44:49.749Z,8.37
2018-04-17T21:47:17.602Z,10.77
2018-04-17T21:49:45.229Z,7.70
2018-04-17T21:52:12.851Z,7.90
2018-04-17T21:54:40.635Z,7.40
2018-04-17T21:57:08.541Z,11.13
2018-04-17T21:59:37.024Z,6.80
2018-04-17T22:02:04.823Z,7.37
2018-04-17T22:04:32.486Z,7.50
2018-04-17T22:07:00.251Z,7.03
2018-04-17T22:09:27.945Z,7.53
2018-04-17T22:11:55.629Z,11.83
2018-04-17T22:14:23.233Z,12.47
2018-04-17T22:16:51.228Z,10.60
2018-04-17T22:19:18.858Z,10.07
2018-04-17T22:21:46.690Z,10.77
2018-04-17T22:24:14.764Z,7.90
2018-04-17T22:26:42.432Z,9.43
2018-04-17T22:29:10.055Z,6.80
2018-04-17T22:31:37.786Z,7.73
2018-04-17T22:34:05.532Z,7.53
2018-04-17T22:36:33.527Z,10.30
2018-04-17T22:39:01.256Z,6.47
2018-04-17T22:41:30.818Z,5.77
2018-04-17T22:43:58.571Z,6.07
2018-04-17T22:46:26.244Z,8.17
2018-04-17T22:48:54.499Z,6.53
2018-04-17T22:51:22.153Z,7.63
2018-04-17T22:53:49.809Z,5.93
2018-04-17T22:56:17.440Z,6.83
2018-04-17T22:58:45.065Z,6.70
2018-04-17T23:01:12.675Z,6.67
2018-04-17T23:03:41.028Z,7.00
2018-04-17T23:06:08.622Z,7.30
2018-04-17T23:08:36.213Z,7.77
2018-04-17T23:11:03.813Z,6.57
2018-04-17T23:13:31.429Z,6.83
2018-04-17T23:15:59.031Z,6.63
2018-04-17T23:18:26.633Z,7.23
2018-04-17T23:20:54.230Z,7.07
2018-04-17T23:23:21.987Z,5.73
2018-04-17T23:25:49.582Z,7.60
2018-04-17T23:28:17.191Z,6.40
2018-04-17T23:30:44.781Z,7.90
2018-04-17T23:33:12.388Z,11.60
2018-04-17T23:35:40.759Z,8.03
2018-04-17T23:38:09.146Z,7.57
2018-04-17T23:40:36.765Z,8.33
2018-04-17T23:43:04.378Z,7.37
2018-04-17T23:45:31.996Z,6.57
2018-04-17T23:47:59.609Z,8.30
2018-04-17T23:50:27.237Z,10.27
2018-04-17T23:52:55.592Z,10.00
2018-04-17T23:55:23.225Z,8.73
2018-04-17T23:57:50.809Z,8.90
